Time;durP1;ratioP1;P1;durP2;ratioP2;P2;SDS_P1;SDS_P2;PMS_P1;PMS_P2;Temp;Humidity;BMP_temperature;BMP_pressure;BME280_temperature;BME280_humidity;BME280_pressure;Samples;Min_cycle;Max_cycle;Signal;HPM_P1;HPM_P2
2023/06/26 00:01:02;;;;;;;;;;;;;;;23.55;49.24;100260.00;5408184;32;36169;-77
2023/06/26 00:04:04;;;;;;;;;;;;;;;23.51;49.66;100256.78;5387908;32;34856;-77
2023/06/26 00:07:06;;;;;;;;;;;;;;;24.00;47.83;100260.13;5378411;32;35297;-77
2023/06/26 00:10:08;;;;;;;;;;;;;;;23.36;49.58;100255.53;5401881;32;35883;-69
2023/06/26 00:13:12;;;;;;;;;;;;;;;24.11;47.64;100252.88;5389701;32;34385;-76
2023/06/26 00:16:14;;;;;;;;;;;;;;;23.34;49.68;100262.91;5408692;32;36303;-77
2023/06/26 00:19:16;;;;;;;;;;;;;;;22.39;52.17;100262.75;5388923;32;35596;-78
2023/06/26 00:22:18;;;;;;;;;;;;;;;22.72;51.29;100261.53;5391597;32;35531;-76
2023/06/26 00:25:20;;;;;;;;;;;;;;;23.54;49.21;100265.53;5386593;32;35325;-70
2023/06/26 00:28:22;;;;;;;;;;;;;;;24.00;48.10;100264.66;5404433;32;34397;-77
2023/06/26 00:31:24;;;;;;;;;;;;;;;23.45;48.75;100261.91;5379967;32;35020;-77
2023/06/26 00:34:26;;;;;;;;;;;;;;;23.40;48.79;100265.00;5402752;32;35549;-78
2023/06/26 00:37:28;;;;;;;;;;;;;;;22.10;52.21;100268.91;5408526;32;34906;-70
2023/06/26 00:40:30;;;;;;;;;;;;;;;22.35;51.89;100267.56;5401002;32;34579;-70
2023/06/26 00:43:32;;;;;;;;;;;;;;;23.19;49.55;100265.19;5398878;32;33520;-70
2023/06/26 00:46:34;;;;;;;;;;;;;;;23.27;49.35;100266.31;5401472;32;35360;-76
2023/06/26 00:49:36;;;;;;;;;;;;;;;23.24;49.33;100259.38;5404098;32;34961;-71
2023/06/26 00:52:38;;;;;;;;;;;;;;;22.12;52.54;100261.59;5403971;32;34904;-71
2023/06/26 00:55:40;;;;;;;;;;;;;;;21.47;54.30;100270.87;5404059;32;34716;-70
2023/06/26 00:58:42;;;;;;;;;;;;;;;21.54;54.46;100264.00;5407782;32;34271;-76
2023/06/26 01:01:44;;;;;;;;;;;;;;;21.83;53.27;100264.16;5376506;32;34878;-76
2023/06/26 01:04:52;;;;;;;;;;;;;;;21.93;53.13;100261.50;5402928;32;34662;-76
2023/06/26 01:07:54;;;;;;;;;;;;;;;21.79;53.39;100248.50;5389497;32;35676;-75
2023/06/26 01:10:55;;;;;;;;;;;;;;;21.77;53.43;100254.00;5404593;32;34955;-75
2023/06/26 01:13:57;;;;;;;;;;;;;;;21.69;53.11;100250.28;5404810;32;35833;-77
2023/06/26 01:17:00;;;;;;;;;;;;;;;22.00;52.65;100251.94;5393664;32;34514;-71
2023/06/26 01:20:06;;;;;;;;;;;;;;;21.66;53.50;100250.56;5403700;32;35012;-78
2023/06/26 01:23:20;;;;;;;;;;;;;;;21.62;53.65;100241.94;5390032;32;34653;-70
2023/06/26 01:26:23;;;;;;;;;;;;;;;22.04;52.44;100245.34;5392967;32;35652;-77
2023/06/26 01:29:25;;;;;;;;;;;;;;;21.73;53.29;100233.00;5388394;32;34344;-70
2023/06/26 01:32:27;;;;;;;;;;;;;;;22.36;51.88;100241.63;5403702;32;35008;-69
2023/06/26 01:35:29;;;;;;;;;;;;;;;21.85;53.15;100242.62;5408055;32;34806;-78
2023/06/26 01:38:31;;;;;;;;;;;;;;;21.53;54.24;100246.28;5403063;32;34515;-71
2023/06/26 01:41:33;;;;;;;;;;;;;;;21.79;53.59;100241.31;5407253;32;35446;-76
2023/06/26 01:44:35;;;;;;;;;;;;;;;22.16;52.89;100235.41;5398023;32;34545;-70
2023/06/26 01:47:37;;;;;;;;;;;;;;;21.72;54.25;100233.97;5392375;32;34400;-76
2023/06/26 01:50:39;;;;;;;;;;;;;;;21.75;54.45;100231.88;5382938;32;34981;-70
2023/06/26 01:53:42;;;;;;;;;;;;;;;21.90;54.49;100237.72;5388249;32;35417;-70
2023/06/26 01:56:45;;;;;;;;;;;;;;;22.06;54.51;100242.53;5393953;32;34627;-70
2023/06/26 01:59:46;;;;;;;;;;;;;;;22.39;54.23;100241.34;5401470;32;35371;-77
2023/06/26 02:02:48;;;;;;;;;;;;;;;21.33;58.04;100250.69;5378829;32;35256;-77
2023/06/26 02:05:51;;;;;;;;;;;;;;;21.88;56.44;100245.84;5393727;32;35533;-77
2023/06/26 02:08:56;;;;;;;;;;;;;;;22.05;56.12;100236.31;5392666;32;34474;-70
2023/06/26 02:11:58;;;;;;;;;;;;;;;22.35;55.20;100240.78;5404246;32;36895;-70
2023/06/26 02:15:00;;;;;;;;;;;;;;;21.83;56.68;100249.91;5402937;32;34222;-77
2023/06/26 02:18:02;;;;;;;;;;;;;;;21.39;58.49;100257.34;5408386;32;36259;-76
2023/06/26 02:21:04;;;;;;;;;;;;;;;21.35;59.05;100254.06;5402306;32;34969;-71
2023/06/26 02:24:06;;;;;;;;;;;;;;;21.34;59.46;100252.38;5403842;32;34847;-77
2023/06/26 02:27:08;;;;;;;;;;;;;;;21.37;59.59;100260.13;5402725;32;35050;-70
2023/06/26 02:30:10;;;;;;;;;;;;;;;21.43;59.48;100269.44;5402419;32;34309;-77
2023/06/26 02:33:12;;;;;;;;;;;;;;;21.48;59.58;100263.69;5403201;32;34540;-75
2023/06/26 02:36:14;;;;;;;;;;;;;;;21.67;58.75;100269.12;5400941;32;35338;-76
2023/06/26 02:39:16;;;;;;;;;;;;;;;21.32;60.37;100265.03;5408269;32;34227;-70
2023/06/26 02:42:18;;;;;;;;;;;;;;;21.27;60.72;100274.37;5382114;32;34226;-76
2023/06/26 02:45:20;;;;;;;;;;;;;;;21.24;61.04;100277.31;5401409;32;34964;-70
2023/06/26 02:48:22;;;;;;;;;;;;;;;21.11;61.59;100272.16;5397879;32;35036;-77
2023/06/26 02:51:24;;;;;;;;;;;;;;;20.86;62.66;100276.03;5403467;32;34647;-70
2023/06/26 02:54:26;;;;;;;;;;;;;;;20.79;63.13;100267.69;5389117;32;34853;-77
2023/06/26 02:57:28;;;;;;;;;;;;;;;21.28;61.17;100279.62;5397350;32;35185;-77
2023/06/26 03:00:30;;;;;;;;;;;;;;;21.21;61.71;100270.41;5385979;32;35702;-77
2023/06/26 03:03:40;;;;;;;;;;;;;;;21.31;60.34;100274.00;5399502;32;35545;-70
2023/06/26 03:06:42;;;;;;;;;;;;;;;22.20;57.70;100271.59;5407157;32;34703;-76
2023/06/26 03:09:44;;;;;;;;;;;;;;;20.75;61.96;100284.13;5402316;32;35218;-77
2023/06/26 03:12:46;;;;;;;;;;;;;;;20.69;62.24;100284.63;5403750;32;34242;-77
2023/06/26 03:15:48;;;;;;;;;;;;;;;20.81;61.74;100280.94;5404286;32;34650;-70
2023/06/26 03:18:50;;;;;;;;;;;;;;;21.16;60.64;100285.97;5402309;32;35762;-70
2023/06/26 03:21:52;;;;;;;;;;;;;;;21.45;58.62;100280.87;5409118;32;34965;-75
2023/06/26 03:24:55;;;;;;;;;;;;;;;21.04;60.24;100279.84;5398714;32;36279;-70
2023/06/26 03:27:57;;;;;;;;;;;;;;;20.64;61.53;100295.69;5406746;32;34379;-70
2023/06/26 03:30:59;;;;;;;;;;;;;;;21.30;59.23;100287.50;5389791;32;35041;-76
2023/06/26 03:34:01;;;;;;;;;;;;;;;21.11;59.19;100288.19;5403773;32;36696;-70
2023/06/26 03:37:03;;;;;;;;;;;;;;;21.26;57.81;100283.38;5412402;32;35049;-77
2023/06/26 03:40:05;;;;;;;;;;;;;;;21.67;56.19;100287.03;5401546;32;34894;-76
2023/06/26 03:43:07;;;;;;;;;;;;;;;20.91;58.32;100286.34;5405153;32;34441;-70
2023/06/26 03:46:09;;;;;;;;;;;;;;;20.95;58.49;100285.13;5400321;32;34891;-70
2023/06/26 03:49:12;;;;;;;;;;;;;;;20.83;59.07;100287.00;5407826;32;34500;-71
2023/06/26 03:52:14;;;;;;;;;;;;;;;21.18;58.88;100288.50;5389279;32;35076;-71
2023/06/26 03:55:15;;;;;;;;;;;;;;;21.28;58.04;100284.09;5402913;32;34561;-71
2023/06/26 03:58:20;;;;;;;;;;;;;;;20.63;60.63;100288.66;5408823;32;35672;-78
2023/06/26 04:01:22;;;;;;;;;;;;;;;21.74;56.88;100281.00;5404095;32;34528;-76
2023/06/26 04:04:24;;;;;;;;;;;;;;;20.84;58.07;100294.03;5407595;32;34544;-77
2023/06/26 04:07:26;;;;;;;;;;;;;;;21.17;57.45;100292.16;5388024;32;34314;-71
2023/06/26 04:10:29;;;;;;;;;;;;;;;21.15;57.40;100286.12;5393618;32;34791;-71
2023/06/26 04:13:31;;;;;;;;;;;;;;;20.98;59.10;100291.06;5402129;32;35129;-71
2023/06/26 04:16:32;;;;;;;;;;;;;;;21.39;57.06;100297.44;5406043;32;34701;-72
2023/06/26 04:19:35;;;;;;;;;;;;;;;21.59;56.59;100288.53;5404397;32;34995;-77
2023/06/26 04:22:38;;;;;;;;;;;;;;;21.95;54.94;100283.59;5374076;32;35765;-70
2023/06/26 04:25:40;;;;;;;;;;;;;;;22.09;54.90;100285.97;5407263;32;34670;-77
2023/06/26 04:28:42;;;;;;;;;;;;;;;22.82;52.17;100282.97;5403631;32;34669;-70
2023/06/26 04:31:47;;;;;;;;;;;;;;;21.46;56.18;100298.59;5394660;32;34730;-77
2023/06/26 04:34:49;;;;;;;;;;;;;;;22.27;53.91;100280.78;5402717;32;35683;-70
2023/06/26 04:37:51;;;;;;;;;;;;;;;21.76;54.74;100296.91;5404290;32;35271;-76
2023/06/26 04:40:53;;;;;;;;;;;;;;;21.94;54.30;100294.44;5405108;32;34669;-70
2023/06/26 04:43:55;;;;;;;;;;;;;;;22.54;52.86;100292.66;5399926;32;34861;-69
2023/06/26 04:46:57;;;;;;;;;;;;;;;23.21;50.10;100300.75;5406344;32;34750;-70
2023/06/26 04:49:59;;;;;;;;;;;;;;;22.95;50.44;100299.62;5403938;32;35475;-78
2023/06/26 04:53:02;;;;;;;;;;;;;;;23.35;49.03;100303.97;5388488;32;35476;-77
2023/06/26 04:56:04;;;;;;;;;;;;;;;23.74;48.02;100300.22;5401983;32;35548;-78
2023/06/26 04:59:06;;;;;;;;;;;;;;;23.06;49.96;100291.47;5399906;32;34815;-77
2023/06/26 05:02:08;;;;;;;;;;;;;;;24.22;47.55;100295.63;5400521;32;34672;-71
2023/06/26 05:05:10;;;;;;;;;;;;;;;25.10;44.14;100296.72;5404037;32;34512;-79
2023/06/26 05:08:18;;;;;;;;;;;;;;;24.52;45.20;100294.47;5389697;32;35160;-77
2023/06/26 05:11:20;;;;;;;;;;;;;;;24.55;45.55;100296.88;5398325;32;34526;-78
2023/06/26 05:14:22;;;;;;;;;;;;;;;26.18;41.66;100298.06;5402257;32;35498;-79
2023/06/26 05:17:26;;;;;;;;;;;;;;;26.18;42.00;100295.38;5403143;32;35428;-78
2023/06/26 05:20:28;;;;;;;;;;;;;;;26.53;41.25;100286.22;5398264;32;35013;-71
2023/06/26 05:23:30;;;;;;;;;;;;;;;27.40;39.12;100287.47;5402365;32;35609;-77
2023/06/26 05:26:32;;;;;;;;;;;;;;;27.19;39.19;100281.78;5402282;32;34758;-72
2023/06/26 05:29:34;;;;;;;;;;;;;;;27.73;38.41;100282.88;5395918;32;35425;-78
2023/06/26 05:32:40;;;;;;;;;;;;;;;26.78;40.55;100284.41;5400001;32;36746;-78
2023/06/26 05:35:42;;;;;;;;;;;;;;;26.69;40.62;100282.75;5385415;32;34706;-72
2023/06/26 05:38:44;;;;;;;;;;;;;;;27.76;38.81;100284.41;5402210;32;34438;-73
2023/06/26 05:41:49;;;;;;;;;;;;;;;28.61;37.29;100276.41;5378619;32;34216;-75
2023/06/26 05:44:52;;;;;;;;;;;;;;;29.55;35.25;100282.41;5398715;32;35138;-77
2023/06/26 05:47:54;;;;;;;;;;;;;;;28.41;37.27;100288.72;5381763;32;34207;-74
2023/06/26 05:50:56;;;;;;;;;;;;;;;28.38;37.13;100281.78;5401039;32;33609;-70
2023/06/26 05:53:58;;;;;;;;;;;;;;;27.68;39.04;100285.25;5400412;32;34359;-79
2023/06/26 05:57:00;;;;;;;;;;;;;;;28.68;37.03;100285.47;5389387;32;33114;-72
2023/06/26 06:00:05;;;;;;;;;;;;;;;28.74;37.57;100290.16;5403407;32;34273;-87
2023/06/26 06:03:09;;;;;;;;;;;;;;;29.05;37.01;100287.44;5382732;32;34175;-71
2023/06/26 06:06:12;;;;;;;;;;;;;;;29.16;36.92;100285.28;5400379;32;35328;-72
2023/06/26 06:09:14;;;;;;;;;;;;;;;28.41;38.16;100284.13;5394974;32;34062;-76
2023/06/26 06:12:16;;;;;;;;;;;;;;;28.60;38.04;100283.69;5393115;32;36012;-70
2023/06/26 06:15:18;;;;;;;;;;;;;;;31.11;33.49;100274.72;5399891;32;35768;-80
2023/06/26 06:18:23;;;;;;;;;;;;;;;29.01;36.88;100277.97;5401959;32;35450;-78
2023/06/26 06:21:26;;;;;;;;;;;;;;;30.51;34.13;100273.25;5396126;32;34394;-73
2023/06/26 06:24:28;;;;;;;;;;;;;;;32.50;31.15;100266.53;5400849;32;34345;-75
2023/06/26 06:27:31;;;;;;;;;;;;;;;30.61;34.13;100270.22;5402722;32;35533;-73
2023/06/26 06:30:33;;;;;;;;;;;;;;;31.81;31.78;100273.75;5399239;32;35703;-81
2023/06/26 06:33:46;;;;;;;;;;;;;;;31.03;33.33;100272.09;5406772;32;35406;-76
2023/06/26 06:36:49;;;;;;;;;;;;;;;30.64;33.40;100270.66;5400123;32;34525;-83
2023/06/26 06:39:52;;;;;;;;;;;;;;;33.11;29.18;100266.44;5399031;32;34998;-71
2023/06/26 06:42:54;;;;;;;;;;;;;;;33.65;27.76;100268.88;5390024;32;33100;-70
2023/06/26 06:45:56;;;;;;;;;;;;;;;33.02;28.44;100278.56;5397477;32;34306;-77
2023/06/26 06:49:04;;;;;;;;;;;;;;;32.05;30.02;100283.28;5397816;32;35938;-73
2023/06/26 06:52:06;;;;;;;;;;;;;;;31.54;30.76;100280.03;5388390;32;34793;-75
2023/06/26 06:55:10;;;;;;;;;;;;;;;30.08;33.62;100275.03;5397088;32;34311;-78
2023/06/26 06:58:12;;;;;;;;;;;;;;;33.85;27.25;100278.91;5400152;32;34943;-81
2023/06/26 07:01:15;;;;;;;;;;;;;;;32.59;29.00;100273.47;5365729;32;35640;-79
2023/06/26 07:04:17;;;;;;;;;;;;;;;30.20;32.77;100279.78;5392641;32;34915;-73
2023/06/26 07:07:19;;;;;;;;;;;;;;;30.56;32.67;100278.94;5392594;32;34250;-72
2023/06/26 07:10:21;;;;;;;;;;;;;;;32.36;29.96;100273.81;5394876;32;36352;-81
2023/06/26 07:13:23;;;;;;;;;;;;;;;32.66;29.67;100277.03;5396196;32;35584;-74
2023/06/26 07:16:25;;;;;;;;;;;;;;;31.12;31.70;100276.38;5397181;32;35848;-76
2023/06/26 07:19:29;;;;;;;;;;;;;;;32.71;29.66;100266.34;5396248;32;34182;-77
2023/06/26 07:22:31;;;;;;;;;;;;;;;34.84;26.71;100251.13;5399397;32;35619;-80
2023/06/26 07:25:33;;;;;;;;;;;;;;;35.19;25.74;100256.97;5401966;32;36430;-78
2023/06/26 07:28:36;;;;;;;;;;;;;;;36.30;24.00;100261.41;5396737;32;34435;-78
2023/06/26 07:31:41;;;;;;;;;;;;;;;35.10;25.69;100260.19;5401929;32;35642;-83
2023/06/26 07:34:45;;;;;;;;;;;;;;;33.05;28.72;100270.00;5387544;32;35074;-76
2023/06/26 07:37:51;;;;;;;;;;;;;;;33.04;28.98;100271.88;5401592;32;34213;-74
2023/06/26 07:40:59;;;;;;;;;;;;;;;30.90;31.99;100264.69;5400731;32;34151;-78
2023/06/26 07:44:01;;;;;;;;;;;;;;;31.39;31.26;100265.75;5394198;32;35987;-81
2023/06/26 07:47:04;;;;;;;;;;;;;;;32.50;29.61;100255.66;5403508;32;32548;-73
2023/06/26 07:50:06;;;;;;;;;;;;;;;34.26;27.00;100255.88;5401466;32;34265;-73
2023/06/26 07:53:08;;;;;;;;;;;;;;;33.19;28.38;100263.47;5401468;32;35033;-74
2023/06/26 07:56:14;;;;;;;;;;;;;;;33.20;28.69;100265.16;5402586;32;35350;-80
2023/06/26 07:59:16;;;;;;;;;;;;;;;34.20;27.36;100260.34;5397419;32;35529;-75
2023/06/26 08:02:20;;;;;;;;;;;;;;;33.29;28.68;100263.87;5394063;32;35164;-76
2023/06/26 08:05:22;;;;;;;;;;;;;;;34.43;26.43;100254.34;5393280;32;33890;-75
2023/06/26 08:08:25;;;;;;;;;;;;;;;35.84;24.13;100256.53;5399565;32;35399;-78
2023/06/26 08:11:28;;;;;;;;;;;;;;;37.04;22.55;100255.75;5378815;32;35410;-79
2023/06/26 08:14:31;;;;;;;;;;;;;;;37.11;22.85;100256.44;5391511;32;33985;-77
2023/06/26 08:17:33;;;;;;;;;;;;;;;36.34;23.54;100250.87;5394112;32;36840;-77
2023/06/26 08:20:38;;;;;;;;;;;;;;;37.43;21.83;100253.38;5391805;32;35606;-77
2023/06/26 08:23:40;;;;;;;;;;;;;;;35.06;24.69;100259.81;5401812;32;35740;-74
2023/06/26 08:26:42;;;;;;;;;;;;;;;33.33;27.09;100265.13;5396319;32;34296;-74
2023/06/26 08:29:44;;;;;;;;;;;;;;;32.37;28.24;100264.63;5403121;32;36124;-78
2023/06/26 08:32:46;;;;;;;;;;;;;;;33.35;27.26;100263.03;5394683;32;36160;-73
2023/06/26 08:35:51;;;;;;;;;;;;;;;34.44;26.00;100262.31;5396209;32;35718;-72
2023/06/26 08:38:53;;;;;;;;;;;;;;;33.55;26.66;100262.19;5388724;32;36162;-72
2023/06/26 08:41:55;;;;;;;;;;;;;;;32.41;28.42;100263.16;5399266;32;35275;-77
2023/06/26 08:44:57;;;;;;;;;;;;;;;31.77;29.14;100258.03;5394466;32;33390;-72
2023/06/26 08:48:03;;;;;;;;;;;;;;;29.04;33.80;100274.91;5385186;32;34652;-72
2023/06/26 08:51:09;;;;;;;;;;;;;;;30.71;31.47;100262.62;5387627;32;34469;-71
2023/06/26 08:54:11;;;;;;;;;;;;;;;30.29;31.96;100263.41;5395849;32;34674;-72
2023/06/26 08:57:18;;;;;;;;;;;;;;;30.14;32.50;100256.16;5395427;32;35727;-79
2023/06/26 09:00:23;;;;;;;;;;;;;;;29.46;33.73;100270.78;5400846;32;33100;-78
2023/06/26 09:03:25;;;;;;;;;;;;;;;29.59;33.50;100268.31;5402012;32;34174;-77
2023/06/26 09:06:28;;;;;;;;;;;;;;;29.65;33.45;100269.44;5401240;32;33376;-72
2023/06/26 09:09:30;;;;;;;;;;;;;;;29.68;33.34;100267.19;5399549;32;34920;-79
2023/06/26 09:12:33;;;;;;;;;;;;;;;29.03;34.17;100265.09;5402613;32;34299;-71
2023/06/26 09:15:39;;;;;;;;;;;;;;;29.48;33.67;100271.44;5397649;32;34012;-69
2023/06/26 09:18:44;;;;;;;;;;;;;;;29.22;33.78;100266.47;5397756;32;35578;-69
2023/06/26 09:21:46;;;;;;;;;;;;;;;29.48;33.23;100263.31;5402207;32;34035;-80
2023/06/26 09:24:48;;;;;;;;;;;;;;;30.90;30.88;100261.13;5384956;32;34064;-74
2023/06/26 09:27:50;;;;;;;;;;;;;;;31.76;29.71;100251.78;5403110;32;33767;-75
2023/06/26 09:30:52;;;;;;;;;;;;;;;32.20;29.11;100252.38;5402533;32;34454;-75
2023/06/26 09:34:01;;;;;;;;;;;;;;;35.01;24.92;100246.81;5402076;32;34218;-74
2023/06/26 09:37:03;;;;;;;;;;;;;;;34.38;25.88;100245.97;5388964;32;34158;-74
2023/06/26 09:40:05;;;;;;;;;;;;;;;35.18;24.14;100238.06;5383172;32;35461;-70
2023/06/26 09:43:10;;;;;;;;;;;;;;;36.72;22.53;100230.53;5397576;32;34246;-73
2023/06/26 09:46:17;;;;;;;;;;;;;;;35.82;23.23;100236.78;5382158;32;35784;-72
2023/06/26 09:49:19;;;;;;;;;;;;;;;39.05;19.78;100225.56;5398408;32;35434;-80
2023/06/26 09:52:21;;;;;;;;;;;;;;;38.73;19.86;100223.41;5402183;32;36190;-72
2023/06/26 09:55:23;;;;;;;;;;;;;;;36.33;22.64;100232.78;5401413;32;37177;-79
2023/06/26 09:58:25;;;;;;;;;;;;;;;36.22;22.62;100230.81;5398236;32;35643;-69
2023/06/26 10:01:27;;;;;;;;;;;;;;;35.71;23.18;100229.34;5399196;32;34463;-73
2023/06/26 10:04:32;;;;;;;;;;;;;;;36.02;23.01;100228.38;5388920;32;34191;-70
2023/06/26 10:07:35;;;;;;;;;;;;;;;36.73;21.74;100218.50;5396980;32;34272;-86
2023/06/26 10:10:37;;;;;;;;;;;;;;;35.16;23.88;100226.53;5397051;32;34381;-80
2023/06/26 10:13:46;;;;;;;;;;;;;;;34.14;25.04;100223.03;5396524;32;35728;-72
2023/06/26 10:16:48;;;;;;;;;;;;;;;32.07;27.99;100221.41;5391212;32;34242;-78
2023/06/26 10:19:52;;;;;;;;;;;;;;;32.28;27.55;100216.87;5398781;32;35554;-72
2023/06/26 10:22:54;;;;;;;;;;;;;;;34.29;25.12;100215.38;5398609;32;34242;-78
2023/06/26 10:25:58;;;;;;;;;;;;;;;35.26;23.61;100202.25;5403705;32;34591;-72
2023/06/26 10:29:03;;;;;;;;;;;;;;;33.54;25.86;100215.03;5395874;32;34327;-72
2023/06/26 10:32:05;;;;;;;;;;;;;;;34.98;24.21;100202.75;5403245;32;34294;-80
2023/06/26 10:35:09;;;;;;;;;;;;;;;34.65;24.20;100205.72;5388011;32;34044;-70
2023/06/26 10:38:12;;;;;;;;;;;;;;;35.57;23.26;100203.22;5390363;32;34412;-80
2023/06/26 10:41:15;;;;;;;;;;;;;;;35.94;22.74;100210.37;5404835;32;34856;-81
2023/06/26 10:44:18;;;;;;;;;;;;;;;38.03;20.09;100193.53;5374340;32;34135;-77
2023/06/26 10:47:31;;;;;;;;;;;;;;;35.24;22.65;100201.66;5399196;32;34321;-78
2023/06/26 10:50:37;;;;;;;;;;;;;;;34.54;24.21;100201.81;5397411;32;34146;-78
2023/06/26 10:53:40;;;;;;;;;;;;;;;33.69;24.75;100209.34;5400623;32;36206;-80
2023/06/26 10:56:46;;;;;;;;;;;;;;;34.91;24.17;100197.31;5401998;32;35593;-81
2023/06/26 10:59:48;;;;;;;;;;;;;;;34.42;24.49;100196.22;5399775;32;35528;-73
2023/06/26 11:02:53;;;;;;;;;;;;;;;36.52;22.07;100192.53;5376388;32;34971;-74
2023/06/26 11:06:11;;;;;;;;;;;;;;;36.77;20.95;100189.56;5388520;32;34567;-75
2023/06/26 11:09:15;;;;;;;;;;;;;;;38.22;19.50;100195.00;5394907;32;35360;-74
2023/06/26 11:12:32;;;;;;;;;;;;;;;35.41;22.41;100197.25;5398397;32;34086;-76
2023/06/26 11:15:35;;;;;;;;;;;;;;;36.13;22.03;100192.00;5395412;32;34383;-80
2023/06/26 11:18:39;;;;;;;;;;;;;;;36.35;21.67;100186.84;5380267;32;36839;-67
2023/06/26 11:21:42;;;;;;;;;;;;;;;38.04;20.56;100191.62;5391633;32;34391;-75
2023/06/26 11:24:44;;;;;;;;;;;;;;;36.76;21.04;100185.16;5399466;32;33401;-79
2023/06/26 11:27:46;;;;;;;;;;;;;;;38.11;19.06;100182.16;5375428;32;34514;-73
2023/06/26 11:30:50;;;;;;;;;;;;;;;37.38;19.81;100182.84;5397816;32;35708;-75
2023/06/26 11:33:53;;;;;;;;;;;;;;;36.56;21.32;100171.81;5392732;32;34203;-76
2023/06/26 11:36:56;;;;;;;;;;;;;;;36.75;21.42;100180.75;5399189;32;34299;-72
2023/06/26 11:39:58;;;;;;;;;;;;;;;38.68;19.59;100173.84;5402866;32;34320;-78
2023/06/26 11:43:01;;;;;;;;;;;;;;;37.59;21.15;100175.87;5390152;32;35982;-78
2023/06/26 11:46:04;;;;;;;;;;;;;;;37.90;20.44;100177.38;5405523;32;38249;-73
2023/06/26 11:49:07;;;;;;;;;;;;;;;38.77;19.61;100166.03;5395470;32;33487;-77
2023/06/26 11:52:09;;;;;;;;;;;;;;;37.28;21.28;100171.63;5399717;32;35573;-73
2023/06/26 11:55:11;;;;;;;;;;;;;;;37.18;21.24;100174.16;5394298;32;34434;-72
2023/06/26 11:58:13;;;;;;;;;;;;;;;35.75;22.73;100167.69;5402147;32;34508;-72
2023/06/26 12:01:16;;;;;;;;;;;;;;;34.15;24.36;100170.16;5399741;32;34404;-73
2023/06/26 12:04:19;;;;;;;;;;;;;;;34.24;24.48;100168.84;5402062;32;34197;-72
2023/06/26 12:07:22;;;;;;;;;;;;;;;32.23;27.03;100165.00;5404648;32;34275;-75
2023/06/26 12:10:25;;;;;;;;;;;;;;;32.96;26.24;100182.22;5378830;32;34067;-70
2023/06/26 12:13:27;;;;;;;;;;;;;;;32.34;27.41;100172.56;5393713;32;34362;-75
2023/06/26 12:16:29;;;;;;;;;;;;;;;32.40;26.90;100174.47;5386841;32;35266;-73
2023/06/26 12:19:32;;;;;;;;;;;;;;;33.33;25.79;100177.16;5395658;32;34305;-78
2023/06/26 12:22:35;;;;;;;;;;;;;;;32.46;27.67;100180.94;5403356;32;37514;-75
2023/06/26 12:25:37;;;;;;;;;;;;;;;31.83;27.00;100172.19;5382232;32;34311;-74
2023/06/26 12:28:39;;;;;;;;;;;;;;;32.30;27.70;100166.66;5400545;32;35843;-75
2023/06/26 12:31:42;;;;;;;;;;;;;;;33.23;26.04;100165.84;5401406;32;35590;-74
2023/06/26 12:34:53;;;;;;;;;;;;;;;32.90;26.32;100164.03;5399544;32;34856;-74
2023/06/26 12:37:55;;;;;;;;;;;;;;;33.13;25.75;100158.97;5402905;32;34260;-74
2023/06/26 12:40:57;;;;;;;;;;;;;;;32.90;26.23;100152.31;5393329;32;34693;-78
2023/06/26 12:43:59;;;;;;;;;;;;;;;32.55;26.62;100157.94;5388901;32;34439;-75
2023/06/26 12:47:02;;;;;;;;;;;;;;;31.90;27.54;100164.91;5393787;32;34202;-71
2023/06/26 12:50:05;;;;;;;;;;;;;;;33.57;25.53;100151.97;5396947;32;35464;-73
2023/06/26 12:53:07;;;;;;;;;;;;;;;32.84;27.16;100157.50;5404512;32;35347;-75
2023/06/26 12:56:10;;;;;;;;;;;;;;;32.16;28.19;100158.69;5389072;32;34015;-78
2023/06/26 12:59:12;;;;;;;;;;;;;;;31.85;28.47;100162.78;5380663;32;34195;-78
2023/06/26 13:02:17;;;;;;;;;;;;;;;32.59;27.47;100162.78;5403288;32;34701;-75
2023/06/26 13:05:20;;;;;;;;;;;;;;;31.77;28.07;100155.63;5383729;32;32670;-72
2023/06/26 13:08:24;;;;;;;;;;;;;;;31.86;27.59;100155.47;5396957;32;35972;-71
2023/06/26 13:11:28;;;;;;;;;;;;;;;30.62;29.46;100166.97;5404294;32;35151;-72
2023/06/26 13:14:31;;;;;;;;;;;;;;;31.02;28.93;100149.16;5398988;32;34263;-79
2023/06/26 13:17:33;;;;;;;;;;;;;;;30.74;29.15;100157.28;5374870;32;35789;-71
2023/06/26 13:20:35;;;;;;;;;;;;;;;31.34;28.71;100157.72;5402473;32;34962;-72
2023/06/26 13:23:38;;;;;;;;;;;;;;;30.83;29.47;100163.41;5383301;32;34903;-72
2023/06/26 13:26:40;;;;;;;;;;;;;;;31.64;27.96;100149.31;5403458;32;34508;-72
2023/06/26 13:29:42;;;;;;;;;;;;;;;31.77;27.79;100142.03;5400085;32;34334;-73
2023/06/26 13:32:44;;;;;;;;;;;;;;;30.78;30.07;100149.59;5402925;32;34555;-71
2023/06/26 13:35:47;;;;;;;;;;;;;;;31.55;29.05;100144.03;5401317;32;37701;-70
2023/06/26 13:38:55;;;;;;;;;;;;;;;30.83;30.18;100146.28;5398462;32;35720;-71
2023/06/26 13:41:58;;;;;;;;;;;;;;;31.66;29.36;100136.34;5400765;32;34436;-75
2023/06/26 13:45:00;;;;;;;;;;;;;;;32.51;28.11;100133.03;5392121;32;34301;-75
2023/06/26 13:48:11;;;;;;;;;;;;;;;32.16;28.87;100136.97;5407288;32;34370;-70
2023/06/26 13:51:13;;;;;;;;;;;;;;;32.04;28.14;100128.56;5399800;32;35082;-68
2023/06/26 13:54:18;;;;;;;;;;;;;;;32.88;26.86;100134.31;5399835;32;35511;-76
2023/06/26 13:57:22;;;;;;;;;;;;;;;31.81;28.63;100129.75;5407112;32;35352;-80
2023/06/26 14:00:24;;;;;;;;;;;;;;;32.11;28.29;100134.84;5393288;32;35480;-82
2023/06/26 14:03:28;;;;;;;;;;;;;;;32.24;28.04;100134.88;5398761;32;35292;-70
2023/06/26 14:06:32;;;;;;;;;;;;;;;31.72;29.04;100130.94;5401731;32;33959;-72
2023/06/26 14:09:34;;;;;;;;;;;;;;;31.73;29.15;100126.34;5400544;32;35705;-73
2023/06/26 14:12:36;;;;;;;;;;;;;;;31.24;29.67;100132.84;5394243;32;33981;-81
2023/06/26 14:15:40;;;;;;;;;;;;;;;32.23;28.35;100125.03;5402292;32;35959;-72
2023/06/26 14:18:42;;;;;;;;;;;;;;;31.98;28.78;100121.22;5401786;32;34544;-70
2023/06/26 14:21:44;;;;;;;;;;;;;;;31.96;28.72;100121.44;5402466;32;34437;-70
2023/06/26 14:24:47;;;;;;;;;;;;;;;31.80;29.09;100121.81;5401181;32;34088;-82
2023/06/26 14:27:49;;;;;;;;;;;;;;;31.79;28.88;100120.12;5403293;32;34961;-76
2023/06/26 14:30:51;;;;;;;;;;;;;;;31.02;29.69;100119.28;5404876;32;35455;-81
2023/06/26 14:33:53;;;;;;;;;;;;;;;31.73;28.89;100119.03;5372543;32;33044;-68
2023/06/26 14:36:55;;;;;;;;;;;;;;;31.68;28.57;100120.69;5404676;32;34388;-70
2023/06/26 14:39:58;;;;;;;;;;;;;;;31.92;28.45;100119.34;5406436;32;35303;-74
2023/06/26 14:43:01;;;;;;;;;;;;;;;31.80;28.64;100110.94;5402763;32;34378;-74
2023/06/26 14:46:04;;;;;;;;;;;;;;;32.23;28.24;100119.59;5403742;32;34245;-76
2023/06/26 14:49:07;;;;;;;;;;;;;;;32.84;27.46;100107.69;5392777;32;33774;-77
2023/06/26 14:52:10;;;;;;;;;;;;;;;33.01;27.63;100116.28;5405927;32;34662;-72
2023/06/26 14:55:12;;;;;;;;;;;;;;;33.18;27.46;100114.78;5404109;32;34732;-74
2023/06/26 14:58:14;;;;;;;;;;;;;;;30.96;30.28;100113.81;5395141;32;35765;-75
2023/06/26 15:01:19;;;;;;;;;;;;;;;31.77;29.50;100109.44;5396642;32;34212;-71
2023/06/26 15:04:21;;;;;;;;;;;;;;;31.35;28.87;100105.09;5380931;32;35844;-72
2023/06/26 15:07:24;;;;;;;;;;;;;;;31.74;27.96;100096.25;5401674;32;35630;-70
2023/06/26 15:10:29;;;;;;;;;;;;;;;31.21;29.32;100103.31;5397049;32;34165;-76
2023/06/26 15:13:34;;;;;;;;;;;;;;;31.57;28.89;100110.44;5399385;32;34035;-78
2023/06/26 15:16:37;;;;;;;;;;;;;;;32.57;27.90;100096.81;5395246;32;34368;-74
2023/06/26 15:19:39;;;;;;;;;;;;;;;31.87;29.27;100092.75;5402260;32;34520;-73
2023/06/26 15:22:41;;;;;;;;;;;;;;;32.12;28.32;100095.75;5410942;32;34344;-72
2023/06/26 15:25:43;;;;;;;;;;;;;;;32.26;28.57;100083.00;5366612;32;904856;-73
2023/06/26 15:28:45;;;;;;;;;;;;;;;31.86;29.20;100087.53;5399051;32;34143;-71
2023/06/26 15:31:47;;;;;;;;;;;;;;;32.62;27.26;100085.31;5403223;32;35798;-72
2023/06/26 15:34:49;;;;;;;;;;;;;;;32.19;28.23;100093.88;5401217;32;34572;-72
2023/06/26 15:37:52;;;;;;;;;;;;;;;32.71;27.30;100092.22;5409186;32;35669;-73